Cook Muni Information

FAA: CQM - ICAO: KCQM

Cook Muni (Airport) Location

State Minnesota
County St Louis
City Cook
Cook Muni (Airport) is 2 miles south of Cook, MN.
Latitude 47-49-20.2141N
Longitude 092-41-22.2900W
Elevation 1,328ft

Cook Muni METARs

METAR KCQM 251615Z AUTO 28007KT 10SM CLR M27/M31 A3025 RMK AO2
Altimeter 30.25"
Temperature -27.0°C (-16.6°F)
Wind 280° at 7KT
Clouds Skies are clear.
Visibility 10.0mi
Time observed: 2022-01-25T16:15:00Z

Cook Muni (Airport) Details

Status Operational
Activation November 1947
Ownership Public
Usage Public
Chart GREEN BAY
ATC on-site No
Beacon schedule sunset-sunrise
Beacon color clear green

Cook Muni (Airport) Contacts

Owner CITY OF COOK
Owner address BOX 155, COOK, MN 55723
Owner phone 218-666-2200
Manager KEITH TREPANIER
Manager address 1216 SECOND ST. SW, ROCHESTER, MN 55955
Manager phone 507-255-6156

Cook Muni Radio Frequencies

Cook Muni (Airport) Radio Frequencies

UNICOM N/A
Common traffic advisory frequency (CTAF) 122.9